Terminal Aerodrome Forecast
Issued by NWS Riverton, WY

Current Version | Previous Version | Text Only | Print | Product List | Glossary On
Versions: 1 2 3 4 5 6 7 8 9 10 11 12 13
000
FTUS45 KRIW 042322
TAFRIW
TAF
KRIW 042322Z 0500/0524 07008KT P6SM SCT110
     FM051000 27008KT P6SM FEW120
     FM051900 03010KT P6SM VCTS SCT040CB BKN080=

USA.gov is the U.S. government's official web portal to all federal, state and local government web resources and services.